TKJ4GU LTAC-LTAT
Flight info
| Callsign | TKJ4GU |
|---|---|
| Flight time | 0h 50m |
| Altitude | 33000 |
| Route | GOBIT UL614 GEM UW73 UREBO |
| Aircraft | B38M/M-SDE1FGHILORVWXY/HB1 |
Departure
| Time | 2026-05-07 16:17 |
|---|---|
| Airport | Esenboğa International Airport (LTAC) |
Arrival
| Time | 2026-05-07 17:08 |
|---|---|
| Airport | Malatya Erhaç Airport (LTAT) |
| Time | Latitude | Longitude | Altitude | Speed | Heading |
|---|---|---|---|---|---|
| 2026-05-07 15:55 | 40.11496 | 32.98947 | 3126 ft | 0 kts | 131° |
| 2026-05-07 16:08 | 40.11498 | 32.98944 | 3127 ft | 3 kts | 131° |
| 2026-05-07 16:08 | 40.11513 | 32.98923 | 3128 ft | 3 kts | 134° |
| 2026-05-07 16:08 | 40.11529 | 32.98902 | 3126 ft | 3 kts | 132° |
| 2026-05-07 16:09 | 40.11536 | 32.98892 | 3127 ft | 0 kts | 130° |
| 2026-05-07 16:09 | 40.11539 | 32.98887 | 3125 ft | 2 kts | 113° |
| 2026-05-07 16:09 | 40.11540 | 32.98875 | 3127 ft | 0 kts | 54° |
| 2026-05-07 16:11 | 40.11553 | 32.98898 | 3124 ft | 12 kts | 52° |
| 2026-05-07 16:11 | 40.11658 | 32.98909 | 3128 ft | 21 kts | 335° |
| 2026-05-07 16:12 | 40.11781 | 32.98983 | 3132 ft | 20 kts | 39° |
| 2026-05-07 16:12 | 40.11895 | 32.99090 | 3126 ft | 22 kts | 34° |
| 2026-05-07 16:12 | 40.12027 | 32.99209 | 3128 ft | 23 kts | 38° |
| 2026-05-07 16:12 | 40.12159 | 32.99341 | 3127 ft | 22 kts | 36° |
| 2026-05-07 16:13 | 40.12286 | 32.99461 | 3127 ft | 23 kts | 36° |
| 2026-05-07 16:13 | 40.12419 | 32.99587 | 3130 ft | 23 kts | 37° |
| 2026-05-07 16:13 | 40.12550 | 32.99712 | 3131 ft | 24 kts | 36° |
| 2026-05-07 16:13 | 40.12685 | 32.99840 | 3133 ft | 24 kts | 36° |
| 2026-05-07 16:14 | 40.12826 | 32.99975 | 3130 ft | 24 kts | 36° |
| 2026-05-07 16:14 | 40.12966 | 33.00109 | 3129 ft | 26 kts | 36° |
| 2026-05-07 16:14 | 40.13106 | 33.00243 | 3130 ft | 24 kts | 36° |
| 2026-05-07 16:14 | 40.13242 | 33.00372 | 3133 ft | 25 kts | 36° |
| 2026-05-07 16:15 | 40.13378 | 33.00503 | 3136 ft | 25 kts | 36° |
| 2026-05-07 16:15 | 40.13510 | 33.00628 | 3135 ft | 21 kts | 36° |
| 2026-05-07 16:15 | 40.13635 | 33.00746 | 3132 ft | 24 kts | 36° |
| 2026-05-07 16:15 | 40.13776 | 33.00880 | 3131 ft | 26 kts | 36° |
| 2026-05-07 16:16 | 40.13917 | 33.01015 | 3130 ft | 24 kts | 36° |
| 2026-05-07 16:16 | 40.14067 | 33.01047 | 3135 ft | 23 kts | 324° |
| 2026-05-07 16:16 | 40.14153 | 33.00868 | 3132 ft | 25 kts | 303° |
| 2026-05-07 16:16 | 40.14206 | 33.00686 | 3127 ft | 15 kts | 231° |
| 2026-05-07 16:17 | 40.14087 | 33.00567 | 3127 ft | 46 kts | 216° |
| 2026-05-07 16:17 | 40.13589 | 33.00094 | 3133 ft | 128 kts | 216° |
| 2026-05-07 16:17 | 40.12702 | 32.99244 | 3319 ft | 179 kts | 217° |
| 2026-05-07 16:17 | 40.11659 | 32.98234 | 4217 ft | 182 kts | 217° |
| 2026-05-07 16:18 | 40.10644 | 32.97287 | 5303 ft | 186 kts | 217° |
| 2026-05-07 16:18 | 40.09525 | 32.96237 | 5875 ft | 210 kts | 217° |
| 2026-05-07 16:18 | 40.08260 | 32.95048 | 6443 ft | 236 kts | 217° |
| 2026-05-07 16:18 | 40.06877 | 32.93747 | 7227 ft | 253 kts | 217° |
| 2026-05-07 16:19 | 40.05459 | 32.92412 | 8294 ft | 255 kts | 217° |
| 2026-05-07 16:19 | 40.04013 | 32.91047 | 9326 ft | 261 kts | 217° |
| 2026-05-07 16:19 | 40.02501 | 32.89696 | 10246 ft | 270 kts | 208° |
| 2026-05-07 16:19 | 40.00625 | 32.89067 | 10864 ft | 292 kts | 180° |
| 2026-05-07 16:20 | 39.98603 | 32.89713 | 11457 ft | 312 kts | 152° |
| 2026-05-07 16:20 | 39.96782 | 32.91379 | 12108 ft | 327 kts | 144° |
| 2026-05-07 16:20 | 39.94890 | 32.93117 | 12864 ft | 338 kts | 146° |
| 2026-05-07 16:20 | 39.92949 | 32.94874 | 13786 ft | 341 kts | 146° |
| 2026-05-07 16:21 | 39.90994 | 32.96592 | 14590 ft | 348 kts | 150° |
| 2026-05-07 16:21 | 39.88732 | 32.97686 | 14696 ft | 346 kts | 173° |
| 2026-05-07 16:21 | 39.86341 | 32.97656 | 14857 ft | 345 kts | 186° |
| 2026-05-07 16:21 | 39.83941 | 32.97459 | 15004 ft | 346 kts | 185° |
| 2026-05-07 16:22 | 39.81530 | 32.97357 | 15092 ft | 348 kts | 176° |
| 2026-05-07 16:22 | 39.79182 | 32.98123 | 15130 ft | 350 kts | 156° |
| 2026-05-07 16:22 | 39.77177 | 32.99905 | 15151 ft | 351 kts | 135° |
| 2026-05-07 16:22 | 39.75684 | 33.02409 | 15161 ft | 352 kts | 124° |
| 2026-05-07 16:23 | 39.74313 | 33.05045 | 15160 ft | 352 kts | 124° |
| 2026-05-07 16:23 | 39.72970 | 33.07654 | 15157 ft | 352 kts | 123° |
| 2026-05-07 16:23 | 39.71909 | 33.10529 | 15515 ft | 354 kts | 103° |
| 2026-05-07 16:23 | 39.71690 | 33.13689 | 16376 ft | 354 kts | 84° |
| 2026-05-07 16:24 | 39.72249 | 33.16802 | 17078 ft | 357 kts | 65° |
| 2026-05-07 16:24 | 39.73402 | 33.19659 | 17815 ft | 359 kts | 58° |
| 2026-05-07 16:24 | 39.74658 | 33.22487 | 18515 ft | 363 kts | 57° |
| 2026-05-07 16:24 | 39.75955 | 33.25326 | 19225 ft | 367 kts | 57° |
| 2026-05-07 16:25 | 39.77278 | 33.28180 | 19909 ft | 370 kts | 56° |
| 2026-05-07 16:25 | 39.78602 | 33.31007 | 20560 ft | 373 kts | 56° |
| 2026-05-07 16:25 | 39.79962 | 33.33902 | 21203 ft | 376 kts | 56° |
| 2026-05-07 16:25 | 39.81335 | 33.36817 | 21820 ft | 380 kts | 55° |
| 2026-05-07 16:26 | 39.82718 | 33.39755 | 22433 ft | 383 kts | 55° |
| 2026-05-07 16:26 | 39.84115 | 33.42723 | 23014 ft | 386 kts | 55° |
| 2026-05-07 16:26 | 39.85527 | 33.45721 | 23582 ft | 391 kts | 55° |
| 2026-05-07 16:26 | 39.86679 | 33.48939 | 24194 ft | 398 kts | 71° |
| 2026-05-07 16:27 | 39.87040 | 33.52535 | 24748 ft | 408 kts | 88° |
| 2026-05-07 16:27 | 39.86547 | 33.56199 | 25261 ft | 416 kts | 105° |
| 2026-05-07 16:27 | 39.85598 | 33.59729 | 25718 ft | 421 kts | 106° |
| 2026-05-07 16:27 | 39.84628 | 33.63345 | 26177 ft | 425 kts | 106° |
| 2026-05-07 16:28 | 39.83636 | 33.66981 | 26638 ft | 428 kts | 106° |
| 2026-05-07 16:28 | 39.82626 | 33.70642 | 27083 ft | 432 kts | 106° |
| 2026-05-07 16:28 | 39.81606 | 33.74330 | 27524 ft | 435 kts | 106° |
| 2026-05-07 16:28 | 39.80574 | 33.78050 | 27926 ft | 438 kts | 106° |
| 2026-05-07 16:29 | 39.79536 | 33.81787 | 28342 ft | 441 kts | 106° |
| 2026-05-07 16:29 | 39.78490 | 33.85547 | 28743 ft | 444 kts | 106° |
| 2026-05-07 16:29 | 39.77430 | 33.89334 | 29114 ft | 447 kts | 106° |
| 2026-05-07 16:29 | 39.76370 | 33.93087 | 29501 ft | 450 kts | 106° |
| 2026-05-07 16:30 | 39.75289 | 33.96912 | 29871 ft | 453 kts | 106° |
| 2026-05-07 16:30 | 39.74201 | 34.00760 | 30228 ft | 455 kts | 106° |
| 2026-05-07 16:30 | 39.73102 | 34.04637 | 30583 ft | 458 kts | 106° |
| 2026-05-07 16:30 | 39.71997 | 34.08530 | 30946 ft | 461 kts | 106° |
| 2026-05-07 16:31 | 39.70885 | 34.12445 | 31289 ft | 463 kts | 106° |
| 2026-05-07 16:31 | 39.69765 | 34.16381 | 31629 ft | 466 kts | 106° |
| 2026-05-07 16:31 | 39.68641 | 34.20324 | 32046 ft | 466 kts | 106° |
| 2026-05-07 16:31 | 39.67514 | 34.24275 | 32481 ft | 466 kts | 107° |
| 2026-05-07 16:32 | 39.66403 | 34.28163 | 32885 ft | 466 kts | 107° |
| 2026-05-07 16:32 | 39.65274 | 34.32107 | 33168 ft | 467 kts | 107° |
| 2026-05-07 16:32 | 39.64142 | 34.36055 | 33170 ft | 466 kts | 107° |
| 2026-05-07 16:33 | 39.61885 | 34.43907 | 33168 ft | 464 kts | 107° |
| 2026-05-07 16:33 | 39.59624 | 34.51746 | 33174 ft | 464 kts | 107° |
| 2026-05-07 16:34 | 39.57361 | 34.59570 | 33151 ft | 464 kts | 107° |
| 2026-05-07 16:34 | 39.55107 | 34.67343 | 33171 ft | 463 kts | 107° |
| 2026-05-07 16:35 | 39.52835 | 34.75151 | 33166 ft | 463 kts | 107° |
| 2026-05-07 16:35 | 39.50560 | 34.82947 | 33174 ft | 462 kts | 107° |
| 2026-05-07 16:36 | 39.48280 | 34.90738 | 33180 ft | 462 kts | 108° |
| 2026-05-07 16:36 | 39.46015 | 34.98456 | 33170 ft | 462 kts | 108° |
| 2026-05-07 16:37 | 39.43731 | 35.06215 | 33182 ft | 461 kts | 108° |
| 2026-05-07 16:37 | 39.41445 | 35.13959 | 33177 ft | 460 kts | 108° |
| 2026-05-07 16:38 | 39.39188 | 35.21713 | 33172 ft | 460 kts | 107° |
| 2026-05-07 16:38 | 39.36949 | 35.29454 | 33172 ft | 460 kts | 107° |
| 2026-05-07 16:39 | 39.34702 | 35.37195 | 33174 ft | 460 kts | 107° |
| 2026-05-07 16:39 | 39.32468 | 35.44870 | 33182 ft | 459 kts | 107° |
| 2026-05-07 16:40 | 39.30216 | 35.52583 | 33180 ft | 459 kts | 108° |
| 2026-05-07 16:40 | 39.27958 | 35.60295 | 33175 ft | 459 kts | 108° |
| 2026-05-07 16:41 | 39.25699 | 35.67988 | 33170 ft | 459 kts | 108° |
| 2026-05-07 16:41 | 39.23450 | 35.75625 | 33169 ft | 457 kts | 108° |
| 2026-05-07 16:41 | 39.22336 | 35.79401 | 33000 ft | 446 kts | 108° |
| 2026-05-07 16:42 | 39.21239 | 35.83111 | 32668 ft | 439 kts | 108° |
| 2026-05-07 16:42 | 39.20160 | 35.86759 | 32344 ft | 433 kts | 108° |
| 2026-05-07 16:42 | 39.19094 | 35.90356 | 32025 ft | 426 kts | 108° |
| 2026-05-07 16:42 | 39.18042 | 35.93899 | 31678 ft | 421 kts | 108° |
| 2026-05-07 16:43 | 39.16998 | 35.97412 | 31266 ft | 418 kts | 108° |
| 2026-05-07 16:43 | 39.15975 | 36.00858 | 30866 ft | 415 kts | 107° |
| 2026-05-07 16:43 | 39.14898 | 36.04291 | 30493 ft | 412 kts | 110° |
| 2026-05-07 16:43 | 39.13806 | 36.07667 | 30382 ft | 400 kts | 110° |
| 2026-05-07 16:44 | 39.12774 | 36.10876 | 30686 ft | 376 kts | 109° |
| 2026-05-07 16:44 | 39.11786 | 36.13951 | 30991 ft | 370 kts | 109° |
| 2026-05-07 16:44 | 39.10801 | 36.17018 | 31287 ft | 371 kts | 109° |
| 2026-05-07 16:44 | 39.09805 | 36.20112 | 31437 ft | 378 kts | 110° |
| 2026-05-07 16:45 | 39.08784 | 36.23286 | 31413 ft | 390 kts | 110° |
| 2026-05-07 16:45 | 39.07728 | 36.26561 | 31355 ft | 403 kts | 110° |
| 2026-05-07 16:45 | 39.06640 | 36.29932 | 31285 ft | 413 kts | 110° |
| 2026-05-07 16:46 | 39.04434 | 36.36755 | 30879 ft | 416 kts | 110° |
| 2026-05-07 16:46 | 39.03325 | 36.40178 | 30403 ft | 415 kts | 110° |
| 2026-05-07 16:46 | 39.02213 | 36.43608 | 29859 ft | 415 kts | 110° |
| 2026-05-07 16:46 | 39.01102 | 36.47029 | 29402 ft | 414 kts | 110° |
| 2026-05-07 16:47 | 38.99996 | 36.50430 | 28979 ft | 411 kts | 110° |
| 2026-05-07 16:47 | 38.98895 | 36.53811 | 28535 ft | 409 kts | 110° |
| 2026-05-07 16:47 | 38.97799 | 36.57175 | 28107 ft | 407 kts | 110° |
| 2026-05-07 16:47 | 38.96706 | 36.60524 | 27680 ft | 405 kts | 110° |
| 2026-05-07 16:48 | 38.95622 | 36.63846 | 27258 ft | 403 kts | 110° |
| 2026-05-07 16:48 | 38.94538 | 36.67158 | 26837 ft | 400 kts | 110° |
| 2026-05-07 16:48 | 38.93476 | 36.70401 | 26423 ft | 398 kts | 110° |
| 2026-05-07 16:48 | 38.92406 | 36.73669 | 26012 ft | 396 kts | 110° |
| 2026-05-07 16:49 | 38.91340 | 36.76917 | 25596 ft | 394 kts | 110° |
| 2026-05-07 16:49 | 38.90278 | 36.80147 | 25192 ft | 392 kts | 111° |
| 2026-05-07 16:49 | 38.89220 | 36.83365 | 24777 ft | 390 kts | 111° |
| 2026-05-07 16:49 | 38.88167 | 36.86562 | 24379 ft | 388 kts | 111° |
| 2026-05-07 16:50 | 38.87120 | 36.89740 | 23976 ft | 386 kts | 111° |
| 2026-05-07 16:50 | 38.86090 | 36.92860 | 23574 ft | 384 kts | 111° |
| 2026-05-07 16:50 | 38.85052 | 36.96001 | 23185 ft | 382 kts | 111° |
| 2026-05-07 16:50 | 38.84019 | 36.99123 | 22786 ft | 379 kts | 111° |
| 2026-05-07 16:51 | 38.82992 | 37.02228 | 22382 ft | 377 kts | 111° |
| 2026-05-07 16:51 | 38.81967 | 37.05320 | 21988 ft | 375 kts | 111° |
| 2026-05-07 16:51 | 38.80950 | 37.08388 | 21593 ft | 373 kts | 111° |
| 2026-05-07 16:51 | 38.79938 | 37.11438 | 21212 ft | 371 kts | 111° |
| 2026-05-07 16:52 | 38.79052 | 37.14520 | 20774 ft | 367 kts | 99° |
| 2026-05-07 16:52 | 38.78858 | 37.17751 | 20376 ft | 361 kts | 89° |
| 2026-05-07 16:52 | 38.78747 | 37.20906 | 20045 ft | 358 kts | 90° |
| 2026-05-07 16:52 | 38.78631 | 37.24082 | 19681 ft | 355 kts | 90° |
| 2026-05-07 16:53 | 38.78522 | 37.27233 | 19310 ft | 353 kts | 90° |
| 2026-05-07 16:53 | 38.78414 | 37.30366 | 18942 ft | 351 kts | 90° |
| 2026-05-07 16:53 | 38.78308 | 37.33478 | 18580 ft | 348 kts | 90° |
| 2026-05-07 16:53 | 38.78202 | 37.36567 | 18225 ft | 346 kts | 90° |
| 2026-05-07 16:54 | 38.78096 | 37.39636 | 17861 ft | 344 kts | 90° |
| 2026-05-07 16:54 | 38.77989 | 37.42689 | 17497 ft | 341 kts | 90° |
| 2026-05-07 16:54 | 38.77884 | 37.45677 | 17150 ft | 339 kts | 90° |
| 2026-05-07 16:54 | 38.77777 | 37.48689 | 16789 ft | 337 kts | 91° |
| 2026-05-07 16:55 | 38.77670 | 37.51678 | 16434 ft | 335 kts | 91° |
| 2026-05-07 16:55 | 38.77564 | 37.54649 | 16074 ft | 332 kts | 91° |
| 2026-05-07 16:55 | 38.77458 | 37.57597 | 15720 ft | 330 kts | 91° |
| 2026-05-07 16:55 | 38.77351 | 37.60530 | 15335 ft | 329 kts | 91° |
| 2026-05-07 16:56 | 38.77244 | 37.63444 | 14998 ft | 326 kts | 91° |
| 2026-05-07 16:56 | 38.77137 | 37.66334 | 14668 ft | 324 kts | 91° |
| 2026-05-07 16:56 | 38.76925 | 37.72050 | 13986 ft | 319 kts | 90° |
| 2026-05-07 16:57 | 38.76820 | 37.74836 | 13686 ft | 315 kts | 91° |
| 2026-05-07 16:57 | 38.76714 | 37.77626 | 13353 ft | 313 kts | 91° |
| 2026-05-07 16:57 | 38.76607 | 37.80404 | 13003 ft | 312 kts | 91° |
| 2026-05-07 16:57 | 38.76501 | 37.83171 | 12649 ft | 310 kts | 91° |
| 2026-05-07 16:58 | 38.76395 | 37.85926 | 12313 ft | 309 kts | 91° |
| 2026-05-07 16:58 | 38.76288 | 37.88673 | 11973 ft | 308 kts | 91° |
| 2026-05-07 16:58 | 38.76182 | 37.91405 | 11622 ft | 306 kts | 91° |
| 2026-05-07 16:58 | 38.76075 | 37.94115 | 11301 ft | 304 kts | 91° |
| 2026-05-07 16:59 | 38.75968 | 37.96814 | 10940 ft | 303 kts | 91° |
| 2026-05-07 16:59 | 38.75862 | 37.99469 | 10620 ft | 302 kts | 91° |
| 2026-05-07 16:59 | 38.75755 | 38.02148 | 10306 ft | 300 kts | 91° |
| 2026-05-07 16:59 | 38.75649 | 38.04787 | 10079 ft | 295 kts | 91° |
| 2026-05-07 17:00 | 38.75543 | 38.07408 | 9694 ft | 294 kts | 92° |
| 2026-05-07 17:00 | 38.75438 | 38.09990 | 9313 ft | 286 kts | 92° |
| 2026-05-07 17:00 | 38.75329 | 38.12501 | 9047 ft | 280 kts | 94° |
| 2026-05-07 17:00 | 38.74779 | 38.14885 | 8766 ft | 282 kts | 119° |
| 2026-05-07 17:01 | 38.73761 | 38.17036 | 8501 ft | 281 kts | 121° |
| 2026-05-07 17:01 | 38.72767 | 38.19134 | 8250 ft | 278 kts | 121° |
| 2026-05-07 17:01 | 38.71766 | 38.21228 | 8013 ft | 274 kts | 121° |
| 2026-05-07 17:01 | 38.70775 | 38.23289 | 7782 ft | 269 kts | 121° |
| 2026-05-07 17:02 | 38.69751 | 38.25259 | 7556 ft | 261 kts | 133° |
| 2026-05-07 17:02 | 38.68292 | 38.26476 | 7329 ft | 246 kts | 164° |
| 2026-05-07 17:02 | 38.66650 | 38.26593 | 7111 ft | 234 kts | 193° |
| 2026-05-07 17:02 | 38.65179 | 38.25826 | 6927 ft | 224 kts | 211° |
| 2026-05-07 17:03 | 38.63842 | 38.24856 | 6742 ft | 218 kts | 211° |
| 2026-05-07 17:03 | 38.62534 | 38.23919 | 6537 ft | 213 kts | 211° |
| 2026-05-07 17:03 | 38.61273 | 38.22977 | 6342 ft | 207 kts | 212° |
| 2026-05-07 17:03 | 38.60068 | 38.22039 | 6134 ft | 204 kts | 213° |
| 2026-05-07 17:04 | 38.58864 | 38.21096 | 5899 ft | 202 kts | 212° |
| 2026-05-07 17:04 | 38.57664 | 38.20156 | 5658 ft | 202 kts | 213° |
| 2026-05-07 17:04 | 38.56469 | 38.19217 | 5402 ft | 201 kts | 213° |
| 2026-05-07 17:04 | 38.55295 | 38.18298 | 5150 ft | 196 kts | 212° |
| 2026-05-07 17:05 | 38.54170 | 38.17417 | 4934 ft | 181 kts | 213° |
| 2026-05-07 17:05 | 38.53135 | 38.16607 | 4729 ft | 170 kts | 213° |
| 2026-05-07 17:05 | 38.52144 | 38.15830 | 4483 ft | 164 kts | 213° |
| 2026-05-07 17:05 | 38.51192 | 38.15083 | 4259 ft | 162 kts | 213° |
| 2026-05-07 17:06 | 38.50232 | 38.14333 | 4034 ft | 162 kts | 213° |
| 2026-05-07 17:06 | 38.49280 | 38.13583 | 3810 ft | 159 kts | 213° |
| 2026-05-07 17:06 | 38.48339 | 38.12848 | 3620 ft | 159 kts | 213° |
| 2026-05-07 17:06 | 38.47391 | 38.12108 | 3414 ft | 160 kts | 214° |
| 2026-05-07 17:07 | 38.46449 | 38.11365 | 3176 ft | 158 kts | 214° |
| 2026-05-07 17:07 | 38.45517 | 38.10638 | 2953 ft | 156 kts | 212° |
| 2026-05-07 17:07 | 38.44584 | 38.09913 | 2825 ft | 153 kts | 212° |
| 2026-05-07 17:07 | 38.43809 | 38.09309 | 2833 ft | 97 kts | 212° |
| 2026-05-07 17:08 | 38.43571 | 38.09104 | 2838 ft | 1 kts | 180° |
| 2026-05-07 17:08 | 38.43568 | 38.09113 | 2840 ft | 3 kts | 105° |
| 2026-05-07 17:08 | 38.43595 | 38.09159 | 2839 ft | 12 kts | 23° |
| 2026-05-07 17:08 | 38.43721 | 38.09243 | 2836 ft | 26 kts | 33° |
| 2026-05-07 17:09 | 38.43870 | 38.09358 | 2831 ft | 27 kts | 31° |
| 2026-05-07 17:09 | 38.44035 | 38.09487 | 2826 ft | 27 kts | 31° |
| 2026-05-07 17:09 | 38.44195 | 38.09611 | 2822 ft | 28 kts | 31° |
| 2026-05-07 17:09 | 38.44362 | 38.09741 | 2821 ft | 22 kts | 31° |
| 2026-05-07 17:10 | 38.44452 | 38.09809 | 2822 ft | 16 kts | 31° |
| 2026-05-07 17:10 | 38.44553 | 38.09900 | 2817 ft | 18 kts | 62° |
| 2026-05-07 17:10 | 38.44500 | 38.09986 | 2817 ft | 14 kts | 152° |
| 2026-05-07 17:10 | 38.44409 | 38.10052 | 2817 ft | 16 kts | 149° |
| 2026-05-07 17:11 | 38.44312 | 38.10126 | 2818 ft | 17 kts | 149° |
| 2026-05-07 17:11 | 38.44244 | 38.10177 | 2821 ft | 9 kts | 149° |
| 2026-05-07 17:11 | 38.44188 | 38.10219 | 2820 ft | 10 kts | 149° |
| 2026-05-07 17:11 | 38.44125 | 38.10269 | 2819 ft | 11 kts | 148° |
| 2026-05-07 17:12 | 38.44054 | 38.10314 | 2820 ft | 11 kts | 180° |
| 2026-05-07 17:12 | 38.43984 | 38.10281 | 2821 ft | 11 kts | 197° |
| 2026-05-07 17:12 | 38.43954 | 38.10307 | 2822 ft | 1 kts | 84° |
| 2026-05-07 17:12 | 38.43957 | 38.10310 | 2822 ft | 0 kts | 54° |